Time;durP1;ratioP1;P1;durP2;ratioP2;P2;SDS_P1;SDS_P2;PMS_P1;PMS_P2;Temp;Humidity;BMP_temperature;BMP_pressure;BME280_temperature;BME280_humidity;BME280_pressure;Samples;Min_cycle;Max_cycle;Signal;HPM_P1;HPM_P2
2021/03/20 00:01:41;;;;;;;8.55;4.57;;;;;;;;;;4889902;29;20547;-58
2021/03/20 00:04:07;;;;;;;14.70;4.85;;;;;;;;;;4891679;28;20035;-60
2021/03/20 00:06:36;;;;;;;12.65;5.53;;;;;;;;;;4887484;29;20072;-60
2021/03/20 00:09:05;;;;;;;8.02;4.45;;;;;;;;;;4891150;29;20031;-61
2021/03/20 00:11:30;;;;;;;9.25;4.82;;;;;;;;;;4910377;28;20352;-57
2021/03/20 00:13:58;;;;;;;7.45;3.90;;;;;;;;;;4908974;29;20043;-59
2021/03/20 00:16:23;;;;;;;6.20;3.92;;;;;;;;;;4909923;29;21114;-59
2021/03/20 00:18:49;;;;;;;9.85;4.60;;;;;;;;;;4892019;29;20039;-59
2021/03/20 00:21:14;;;;;;;15.23;5.30;;;;;;;;;;4888967;29;20455;-59
2021/03/20 00:23:42;;;;;;;8.40;4.18;;;;;;;;;;4875183;29;20039;-59
2021/03/20 00:26:07;;;;;;;8.00;4.53;;;;;;;;;;4886955;29;20059;-58
2021/03/20 00:28:36;;;;;;;9.63;4.50;;;;;;;;;;4868378;29;20087;-59
2021/03/20 00:31:05;;;;;;;6.10;3.47;;;;;;;;;;4907217;29;20086;-59
2021/03/20 00:33:31;;;;;;;11.88;3.90;;;;;;;;;;4908167;29;20118;-59
2021/03/20 00:35:57;;;;;;;9.15;3.92;;;;;;;;;;4905793;29;20040;-59
2021/03/20 00:38:26;;;;;;;5.82;3.42;;;;;;;;;;4908577;29;20032;-60
2021/03/20 00:40:57;;;;;;;8.10;4.15;;;;;;;;;;4906911;29;20048;-58
2021/03/20 00:43:23;;;;;;;8.65;4.18;;;;;;;;;;4907480;29;20626;-57
2021/03/20 00:45:50;;;;;;;7.20;3.45;;;;;;;;;;4911018;29;20043;-59
2021/03/20 00:48:20;;;;;;;13.10;4.55;;;;;;;;;;4911708;29;20043;-57
2021/03/20 00:50:46;;;;;;;18.83;4.40;;;;;;;;;;4910705;29;20027;-59
2021/03/20 00:53:14;;;;;;;8.65;3.72;;;;;;;;;;4908912;28;20028;-59
2021/03/20 00:55:42;;;;;;;13.98;4.28;;;;;;;;;;4906370;29;20042;-59
2021/03/20 00:58:19;;;;;;;11.05;3.72;;;;;;;;;;4909831;29;20070;-59
2021/03/20 01:00:45;;;;;;;14.43;4.20;;;;;;;;;;4888892;29;20716;-59
2021/03/20 01:03:15;;;;;;;8.88;4.25;;;;;;;;;;4890974;29;20063;-59
2021/03/20 01:05:43;;;;;;;7.15;3.85;;;;;;;;;;4909046;29;20050;-59
2021/03/20 01:08:12;;;;;;;10.30;4.57;;;;;;;;;;4912649;29;20032;-58
2021/03/20 01:10:42;;;;;;;9.18;3.88;;;;;;;;;;4914125;29;20040;-59
2021/03/20 01:13:14;;;;;;;8.05;3.70;;;;;;;;;;4913055;29;20127;-59
2021/03/20 01:15:39;;;;;;;10.68;3.45;;;;;;;;;;4911849;29;21951;-57
2021/03/20 01:18:11;;;;;;;10.35;4.03;;;;;;;;;;4896144;29;20123;-59
2021/03/20 01:20:40;;;;;;;9.48;4.05;;;;;;;;;;4915674;29;20147;-59
2021/03/20 01:23:13;;;;;;;15.27;4.28;;;;;;;;;;4906600;29;20039;-59
2021/03/20 01:25:39;;;;;;;11.75;4.75;;;;;;;;;;4912468;29;20035;-58
2021/03/20 01:28:07;;;;;;;9.32;3.72;;;;;;;;;;4911828;29;20027;-58
2021/03/20 01:30:36;;;;;;;14.13;3.65;;;;;;;;;;4912114;29;20615;-58
2021/03/20 01:33:04;;;;;;;8.35;4.05;;;;;;;;;;4896997;29;20501;-59
2021/03/20 01:35:32;;;;;;;8.25;4.07;;;;;;;;;;4897170;29;20031;-58
2021/03/20 01:37:58;;;;;;;8.20;4.47;;;;;;;;;;4889836;29;20094;-58
2021/03/20 01:40:29;;;;;;;10.13;4.07;;;;;;;;;;4908694;28;20059;-58
2021/03/20 01:42:54;;;;;;;9.43;3.92;;;;;;;;;;4894045;29;20078;-58
2021/03/20 01:45:30;;;;;;;8.30;4.93;;;;;;;;;;4909788;28;20027;-58
2021/03/20 01:47:58;;;;;;;7.30;3.95;;;;;;;;;;4927201;28;20058;-58
2021/03/20 01:50:32;;;;;;;12.43;4.35;;;;;;;;;;4909502;28;20050;-58
2021/03/20 01:52:59;;;;;;;9.48;4.07;;;;;;;;;;4909753;29;20027;-58
2021/03/20 01:55:28;;;;;;;14.65;4.00;;;;;;;;;;4895668;29;20138;-59
2021/03/20 01:57:55;;;;;;;6.05;4.05;;;;;;;;;;4912173;28;20031;-59
2021/03/20 02:00:23;;;;;;;10.38;4.50;;;;;;;;;;4897161;28;20027;-59
2021/03/20 02:02:51;;;;;;;12.10;4.30;;;;;;;;;;4907194;28;20921;-58
2021/03/20 02:05:21;;;;;;;6.90;3.22;;;;;;;;;;4928312;28;20035;-59
2021/03/20 02:07:52;;;;;;;15.55;3.63;;;;;;;;;;4911633;28;20050;-59
2021/03/20 02:10:18;;;;;;;9.00;4.28;;;;;;;;;;4930896;28;20035;-59
2021/03/20 02:12:50;;;;;;;6.18;3.92;;;;;;;;;;4931552;28;20114;-59
2021/03/20 02:15:17;;;;;;;10.90;4.15;;;;;;;;;;4928383;28;20031;-59
2021/03/20 02:17:43;;;;;;;6.32;3.70;;;;;;;;;;4913276;28;20037;-57
2021/03/20 02:20:25;;;;;;;8.80;4.78;;;;;;;;;;4897327;28;20114;-58
2021/03/20 02:23:05;;;;;;;6.35;3.42;;;;;;;;;;4909393;28;20376;-60
2021/03/20 02:26:02;;;;;;;7.22;3.58;;;;;;;;;;4927327;28;20037;-59
2021/03/20 02:28:37;;;;;;;8.90;3.45;;;;;;;;;;4912136;28;20117;-58
2021/03/20 02:31:34;;;;;;;7.13;3.85;;;;;;;;;;4905419;28;20126;-58
2021/03/20 02:34:05;;;;;;;8.02;3.88;;;;;;;;;;4912670;28;20047;-60
2021/03/20 02:36:36;;;;;;;7.10;4.03;;;;;;;;;;4931067;28;20043;-60
2021/03/20 02:39:02;;;;;;;6.88;4.03;;;;;;;;;;4928036;28;20241;-57
2021/03/20 02:41:45;;;;;;;6.43;3.65;;;;;;;;;;4928225;28;20064;-59
2021/03/20 02:44:19;;;;;;;7.32;3.40;;;;;;;;;;4924246;28;20085;-59
2021/03/20 02:46:57;;;;;;;10.13;4.13;;;;;;;;;;4910850;28;20039;-58
2021/03/20 02:49:23;;;;;;;7.70;3.67;;;;;;;;;;4929525;28;20138;-58
2021/03/20 02:51:55;;;;;;;8.52;4.45;;;;;;;;;;4926267;28;20137;-58
2021/03/20 02:54:44;;;;;;;10.15;3.85;;;;;;;;;;4923859;28;20543;-58
2021/03/20 02:57:23;;;;;;;8.35;4.15;;;;;;;;;;4929642;28;20094;-59
2021/03/20 03:00:02;;;;;;;8.63;4.53;;;;;;;;;;4907554;28;20051;-58
2021/03/20 03:02:29;;;;;;;10.80;4.70;;;;;;;;;;4926096;28;20102;-59
2021/03/20 03:05:06;;;;;;;11.73;4.38;;;;;;;;;;4925869;28;20027;-59
2021/03/20 03:07:42;;;;;;;18.20;5.32;;;;;;;;;;4911177;28;20129;-58
2021/03/20 03:10:33;;;;;;;10.67;4.40;;;;;;;;;;4909654;28;20050;-58
2021/03/20 03:13:04;;;;;;;7.45;3.70;;;;;;;;;;4902002;28;20043;-58
2021/03/20 03:15:38;;;;;;;7.20;3.85;;;;;;;;;;4928600;28;20842;-58
2021/03/20 03:18:07;;;;;;;9.93;4.38;;;;;;;;;;4925392;28;20039;-58
2021/03/20 03:20:39;;;;;;;9.43;4.95;;;;;;;;;;4911184;28;20066;-58
2021/03/20 03:23:12;;;;;;;11.27;3.78;;;;;;;;;;4929980;28;20039;-59
2021/03/20 03:25:40;;;;;;;6.80;4.18;;;;;;;;;;4892071;28;20038;-57
2021/03/20 03:28:07;;;;;;;12.75;4.07;;;;;;;;;;4909478;28;20031;-58
2021/03/20 03:30:35;;;;;;;12.70;4.72;;;;;;;;;;4892661;28;20073;-59
2021/03/20 03:33:08;;;;;;;11.23;4.97;;;;;;;;;;4912829;28;20042;-58
2021/03/20 03:35:35;;;;;;;13.50;5.63;;;;;;;;;;4893529;28;21991;-58
2021/03/20 03:38:18;;;;;;;16.63;5.28;;;;;;;;;;4912174;28;20063;-58
2021/03/20 03:40:43;;;;;;;11.43;5.18;;;;;;;;;;4929306;28;20154;-58
2021/03/20 03:43:13;;;;;;;23.08;6.68;;;;;;;;;;4911451;28;20709;-58
2021/03/20 03:45:46;;;;;;;14.70;6.65;;;;;;;;;;4928558;28;20110;-60
2021/03/20 03:48:12;;;;;;;17.10;5.90;;;;;;;;;;4912803;28;20491;-59
2021/03/20 03:50:41;;;;;;;18.42;6.78;;;;;;;;;;4912508;28;20078;-58
2021/03/20 03:53:09;;;;;;;17.95;7.07;;;;;;;;;;4929819;28;20031;-58
2021/03/20 03:55:36;;;;;;;16.85;6.32;;;;;;;;;;4929586;28;20479;-58
2021/03/20 03:58:33;;;;;;;19.40;7.30;;;;;;;;;;4932558;28;20122;-58
2021/03/20 04:01:07;;;;;;;15.85;5.82;;;;;;;;;;4923785;28;20051;-60
2021/03/20 04:03:42;;;;;;;16.50;5.95;;;;;;;;;;4910669;28;20074;-60
2021/03/20 04:06:10;;;;;;;17.95;6.55;;;;;;;;;;4928848;28;20155;-60
2021/03/20 04:08:54;;;;;;;22.90;7.88;;;;;;;;;;4897136;28;20026;-60
2021/03/20 04:11:38;;;;;;;18.27;6.60;;;;;;;;;;4926072;28;20130;-60
2021/03/20 04:14:21;;;;;;;20.80;6.82;;;;;;;;;;4911670;28;20141;-62
2021/03/20 04:16:50;;;;;;;21.65;6.65;;;;;;;;;;4932455;28;20062;-58
2021/03/20 04:19:29;;;;;;;22.52;6.50;;;;;;;;;;4929800;28;20035;-59
2021/03/20 04:22:04;;;;;;;15.40;6.15;;;;;;;;;;4932458;28;20049;-59
2021/03/20 04:24:39;;;;;;;20.10;6.22;;;;;;;;;;4930336;28;20094;-58
2021/03/20 04:27:08;;;;;;;14.98;6.68;;;;;;;;;;4930615;28;20043;-60
2021/03/20 04:29:46;;;;;;;17.92;7.15;;;;;;;;;;4906284;28;20126;-59
2021/03/20 04:32:21;;;;;;;25.00;7.38;;;;;;;;;;4928253;28;20043;-59
2021/03/20 04:34:51;;;;;;;19.92;6.93;;;;;;;;;;4910311;28;20126;-59
2021/03/20 04:37:22;;;;;;;20.48;6.78;;;;;;;;;;4928621;28;20035;-59
2021/03/20 04:39:49;;;;;;;13.30;5.57;;;;;;;;;;4924571;28;20110;-60
2021/03/20 04:42:25;;;;;;;22.92;6.70;;;;;;;;;;4899220;29;20045;-60
2021/03/20 04:44:53;;;;;;;22.23;5.75;;;;;;;;;;4891688;29;20130;-59
2021/03/20 04:47:23;;;;;;;20.08;6.15;;;;;;;;;;4910739;29;20040;-59
2021/03/20 04:49:49;;;;;;;21.33;7.43;;;;;;;;;;4909845;29;20036;-60
2021/03/20 04:52:24;;;;;;;15.48;6.28;;;;;;;;;;4911942;29;20047;-60
2021/03/20 04:54:50;;;;;;;22.08;6.00;;;;;;;;;;4914855;29;20039;-60
2021/03/20 04:57:21;;;;;;;20.50;7.22;;;;;;;;;;4889697;29;20502;-60
2021/03/20 04:59:48;;;;;;;19.75;6.75;;;;;;;;;;4914700;29;20040;-59
2021/03/20 05:02:20;;;;;;;22.00;7.65;;;;;;;;;;4913056;29;20020;-60
2021/03/20 05:04:46;;;;;;;22.35;6.95;;;;;;;;;;4895942;29;20040;-60
2021/03/20 05:07:13;;;;;;;34.00;7.60;;;;;;;;;;4897278;29;20036;-60
2021/03/20 05:09:41;;;;;;;21.45;7.32;;;;;;;;;;4912344;29;20962;-59
2021/03/20 05:12:16;;;;;;;23.23;6.97;;;;;;;;;;4897153;29;20055;-58
2021/03/20 05:14:57;;;;;;;20.23;6.40;;;;;;;;;;4913337;29;20048;-59
2021/03/20 05:17:22;;;;;;;14.60;6.90;;;;;;;;;;4892830;29;21607;-58
2021/03/20 05:19:50;;;;;;;17.67;6.88;;;;;;;;;;4897139;29;20032;-58
2021/03/20 05:22:23;;;;;;;15.55;7.00;;;;;;;;;;4894482;29;20039;-62
2021/03/20 05:24:49;;;;;;;26.45;7.40;;;;;;;;;;4912231;29;20036;-59
2021/03/20 05:27:17;;;;;;;25.00;8.82;;;;;;;;;;4910985;29;20039;-60
2021/03/20 05:29:43;;;;;;;27.13;8.38;;;;;;;;;;4912348;29;20055;-59
2021/03/20 05:32:08;;;;;;;30.23;9.10;;;;;;;;;;4895951;29;20037;-58
2021/03/20 05:34:35;;;;;;;19.77;8.15;;;;;;;;;;4910201;29;20229;-59
2021/03/20 05:37:04;;;;;;;29.67;8.43;;;;;;;;;;4892073;29;20624;-59
2021/03/20 05:39:31;;;;;;;15.63;7.53;;;;;;;;;;4913419;29;20055;-59
2021/03/20 05:42:18;;;;;;;18.88;8.68;;;;;;;;;;4875782;29;20176;-59
2021/03/20 05:44:52;;;;;;;18.67;7.60;;;;;;;;;;4911290;29;20091;-59
2021/03/20 05:47:23;;;;;;;27.52;8.55;;;;;;;;;;4894517;29;22190;-60
2021/03/20 05:49:48;;;;;;;26.80;7.53;;;;;;;;;;4911550;29;20074;-60
2021/03/20 05:52:16;;;;;;;22.70;8.30;;;;;;;;;;4911861;29;20035;-59
2021/03/20 05:54:59;;;;;;;19.95;7.68;;;;;;;;;;4896886;29;20036;-59
2021/03/20 05:57:41;;;;;;;23.05;8.43;;;;;;;;;;4907365;29;20130;-60
2021/03/20 06:00:08;;;;;;;20.30;6.68;;;;;;;;;;4913525;29;20198;-58
2021/03/20 06:02:36;;;;;;;20.95;6.82;;;;;;;;;;4908447;29;20036;-59
2021/03/20 06:05:25;;;;;;;14.88;6.13;;;;;;;;;;4894612;29;20386;-59
2021/03/20 06:08:03;;;;;;;25.98;6.78;;;;;;;;;;4892114;29;20044;-58
2021/03/20 06:10:34;;;;;;;19.48;7.25;;;;;;;;;;4909632;29;20039;-58
2021/03/20 06:13:10;;;;;;;16.60;6.53;;;;;;;;;;4911019;29;20123;-58
2021/03/20 06:15:45;;;;;;;21.08;6.82;;;;;;;;;;4910299;29;20035;-58
2021/03/20 06:18:24;;;;;;;16.05;6.90;;;;;;;;;;4892760;29;20699;-60
2021/03/20 06:21:08;;;;;;;15.45;6.60;;;;;;;;;;4910032;29;20050;-59
2021/03/20 06:23:54;;;;;;;11.65;5.45;;;;;;;;;;4909758;29;20069;-59
2021/03/20 06:26:24;;;;;;;16.88;6.25;;;;;;;;;;4892571;29;20028;-59
2021/03/20 06:29:11;;;;;;;19.83;7.72;;;;;;;;;;4890196;29;20035;-59
2021/03/20 06:31:39;;;;;;;18.20;6.90;;;;;;;;;;4874984;29;20072;-58
2021/03/20 06:34:08;;;;;;;14.95;6.78;;;;;;;;;;4891077;29;20023;-59
2021/03/20 06:36:39;;;;;;;19.50;6.60;;;;;;;;;;4912002;29;20031;-59
2021/03/20 06:39:23;;;;;;;19.30;6.57;;;;;;;;;;4870719;29;20092;-58
2021/03/20 06:42:07;;;;;;;19.00;7.00;;;;;;;;;;4906443;29;20139;-58
2021/03/20 06:44:43;;;;;;;12.80;6.18;;;;;;;;;;4910354;29;20315;-61
2021/03/20 06:47:16;;;;;;;15.85;6.88;;;;;;;;;;4908193;29;20031;-60
2021/03/20 06:49:45;;;;;;;12.45;6.55;;;;;;;;;;4913260;29;20039;-59
2021/03/20 06:52:16;;;;;;;18.00;6.75;;;;;;;;;;4910510;29;20031;-60
2021/03/20 06:54:45;;;;;;;17.55;7.45;;;;;;;;;;4910192;29;20035;-59
2021/03/20 06:57:11;;;;;;;15.30;6.47;;;;;;;;;;4892957;29;20032;-61
2021/03/20 06:59:39;;;;;;;17.83;7.82;;;;;;;;;;4909964;29;20031;-60
2021/03/20 07:02:14;;;;;;;13.98;6.88;;;;;;;;;;4878523;29;23111;-59
2021/03/20 07:04:41;;;;;;;11.88;7.18;;;;;;;;;;4902875;29;21031;-60
2021/03/20 07:07:26;;;;;;;14.55;6.50;;;;;;;;;;4907896;29;20373;-60
2021/03/20 07:09:53;;;;;;;11.57;6.50;;;;;;;;;;4892763;29;20027;-59
2021/03/20 07:12:23;;;;;;;13.60;7.13;;;;;;;;;;4905518;29;20062;-60
2021/03/20 07:14:56;;;;;;;11.35;6.38;;;;;;;;;;4910248;29;20115;-59
2021/03/20 07:17:24;;;;;;;13.23;6.38;;;;;;;;;;4909291;29;20051;-58
2021/03/20 07:20:08;;;;;;;16.00;6.35;;;;;;;;;;4906501;29;20031;-60
2021/03/20 07:22:44;;;;;;;12.87;6.27;;;;;;;;;;4907164;29;20064;-60
2021/03/20 07:25:25;;;;;;;15.75;6.00;;;;;;;;;;4907563;29;20291;-57
2021/03/20 07:28:03;;;;;;;10.13;5.82;;;;;;;;;;4907765;28;20044;-58
2021/03/20 07:30:28;;;;;;;12.02;5.50;;;;;;;;;;4909575;29;20069;-59
2021/03/20 07:32:59;;;;;;;14.55;6.65;;;;;;;;;;4909143;29;20072;-58
2021/03/20 07:35:30;;;;;;;11.25;5.78;;;;;;;;;;4902119;29;20098;-58
2021/03/20 07:38:11;;;;;;;11.32;5.07;;;;;;;;;;4911061;29;20155;-58
2021/03/20 07:40:37;;;;;;;6.25;4.45;;;;;;;;;;4927871;28;20290;-59
2021/03/20 07:43:14;;;;;;;9.25;4.70;;;;;;;;;;4928593;28;20027;-59
2021/03/20 07:45:43;;;;;;;8.27;4.40;;;;;;;;;;4926926;28;20166;-60
2021/03/20 07:48:31;;;;;;;8.20;4.20;;;;;;;;;;4926055;28;20035;-58
2021/03/20 07:50:57;;;;;;;6.15;3.53;;;;;;;;;;4923947;28;20031;-58
2021/03/20 07:53:23;;;;;;;4.15;3.45;;;;;;;;;;4926878;28;20475;-59
2021/03/20 07:55:54;;;;;;;7.70;3.83;;;;;;;;;;4911008;28;20026;-59
2021/03/20 07:58:24;;;;;;;5.00;3.38;;;;;;;;;;4925316;28;20043;-59
2021/03/20 08:00:57;;;;;;;6.78;3.60;;;;;;;;;;4926794;28;20082;-59
2021/03/20 08:03:25;;;;;;;7.55;4.18;;;;;;;;;;4928235;28;20035;-60
2021/03/20 08:05:50;;;;;;;6.72;3.88;;;;;;;;;;4921760;28;20119;-59
2021/03/20 08:08:21;;;;;;;5.47;3.20;;;;;;;;;;4924233;28;20126;-58
2021/03/20 08:10:49;;;;;;;5.63;3.10;;;;;;;;;;4908786;28;20039;-58
2021/03/20 08:13:15;;;;;;;8.27;3.90;;;;;;;;;;4928996;28;20027;-59
2021/03/20 08:15:43;;;;;;;5.68;3.65;;;;;;;;;;4927112;28;20058;-59
2021/03/20 08:18:12;;;;;;;6.47;3.05;;;;;;;;;;4929115;28;20028;-59
2021/03/20 08:20:40;;;;;;;4.57;3.50;;;;;;;;;;4909813;28;20051;-59
2021/03/20 08:23:22;;;;;;;7.22;3.42;;;;;;;;;;4925371;28;20031;-60
2021/03/20 08:25:52;;;;;;;8.18;3.80;;;;;;;;;;4925215;28;20050;-60
2021/03/20 08:28:38;;;;;;;4.93;3.42;;;;;;;;;;4907930;28;20114;-59
2021/03/20 08:31:07;;;;;;;5.80;3.78;;;;;;;;;;4905881;28;20046;-59
2021/03/20 08:33:51;;;;;;;6.78;3.92;;;;;;;;;;4909530;28;20026;-59
2021/03/20 08:36:46;;;;;;;5.72;3.40;;;;;;;;;;4924845;28;20109;-58
2021/03/20 08:39:33;;;;;;;6.60;3.63;;;;;;;;;;4929376;28;20058;-59
2021/03/20 08:42:09;;;;;;;7.82;4.07;;;;;;;;;;4912133;28;20031;-59
2021/03/20 08:44:56;;;;;;;9.07;4.53;;;;;;;;;;4910561;28;20091;-58
2021/03/20 08:47:32;;;;;;;5.60;3.80;;;;;;;;;;4929698;28;20483;-59
2021/03/20 08:50:05;;;;;;;9.50;3.92;;;;;;;;;;4928265;28;20107;-59
2021/03/20 08:52:43;;;;;;;5.57;3.75;;;;;;;;;;4924813;28;20035;-59
2021/03/20 08:55:27;;;;;;;5.78;3.70;;;;;;;;;;4908364;28;20114;-59
2021/03/20 08:58:02;;;;;;;13.63;4.45;;;;;;;;;;4922790;28;20462;-59
2021/03/20 09:00:32;;;;;;;6.03;3.63;;;;;;;;;;4926157;28;20039;-59
2021/03/20 09:03:06;;;;;;;5.15;3.70;;;;;;;;;;4924553;28;20043;-58
2021/03/20 09:05:39;;;;;;;5.20;3.70;;;;;;;;;;4893774;28;20055;-58
2021/03/20 09:08:11;;;;;;;6.13;3.72;;;;;;;;;;4925497;28;20507;-60
2021/03/20 09:10:47;;;;;;;5.30;2.85;;;;;;;;;;4927902;28;20600;-59
2021/03/20 09:13:25;;;;;;;5.10;3.33;;;;;;;;;;4926504;28;22205;-60
2021/03/20 09:15:58;;;;;;;4.45;3.10;;;;;;;;;;4910013;28;20042;-60
2021/03/20 09:18:25;;;;;;;4.85;3.20;;;;;;;;;;4926932;28;20054;-59
2021/03/20 09:20:54;;;;;;;6.32;3.42;;;;;;;;;;4906672;28;20046;-59
2021/03/20 09:23:26;;;;;;;6.90;3.85;;;;;;;;;;4928613;28;20150;-58
2021/03/20 09:25:55;;;;;;;5.78;3.45;;;;;;;;;;4928494;28;20617;-58
2021/03/20 09:28:28;;;;;;;6.15;3.08;;;;;;;;;;4929142;28;20069;-58
2021/03/20 09:30:59;;;;;;;5.65;3.40;;;;;;;;;;4928247;28;20503;-59
2021/03/20 09:33:27;;;;;;;10.07;3.58;;;;;;;;;;4928342;28;20128;-59
2021/03/20 09:35:59;;;;;;;6.07;3.63;;;;;;;;;;4929439;28;20582;-58
2021/03/20 09:38:34;;;;;;;4.63;3.10;;;;;;;;;;4928244;28;20058;-60
2021/03/20 09:41:03;;;;;;;4.00;2.85;;;;;;;;;;4911722;29;20055;-59
2021/03/20 09:43:33;;;;;;;4.65;3.08;;;;;;;;;;4911722;28;20066;-59
2021/03/20 09:46:18;;;;;;;6.80;3.25;;;;;;;;;;4929038;28;20446;-59
2021/03/20 09:48:46;;;;;;;4.85;3.15;;;;;;;;;;4924433;28;20043;-58
2021/03/20 09:51:30;;;;;;;7.68;3.58;;;;;;;;;;4907619;28;20039;-58
2021/03/20 09:53:55;;;;;;;7.60;3.83;;;;;;;;;;4930457;28;20032;-58
2021/03/20 09:56:30;;;;;;;6.65;4.00;;;;;;;;;;4885826;28;20087;-59
2021/03/20 09:58:58;;;;;;;;;;;;;;;;;;4929884;28;20031;-59
2021/03/20 10:01:42;;;;;;;6.70;3.55;;;;;;;;;;4928257;28;19925;-58
2021/03/20 10:04:26;;;;;;;6.97;3.53;;;;;;;;;;4928199;28;20074;-58
2021/03/20 10:07:15;;;;;;;5.35;3.17;;;;;;;;;;4928178;28;20035;-59
2021/03/20 10:10:00;;;;;;;7.68;3.13;;;;;;;;;;4930013;28;20034;-60
2021/03/20 10:12:28;;;;;;;6.10;3.58;;;;;;;;;;4927609;28;20122;-60
2021/03/20 10:15:14;;;;;;;6.57;3.78;;;;;;;;;;4932078;28;20045;-60
2021/03/20 10:17:55;;;;;;;8.30;3.40;;;;;;;;;;4931638;28;20038;-60
2021/03/20 10:20:22;;;;;;;6.75;3.50;;;;;;;;;;4929971;28;20035;-60
2021/03/20 10:22:51;;;;;;;5.60;3.67;;;;;;;;;;4895140;28;20054;-61
2021/03/20 10:25:17;;;;;;;5.25;3.63;;;;;;;;;;4932623;28;20031;-58
2021/03/20 10:27:59;;;;;;;10.10;4.35;;;;;;;;;;4911655;28;20391;-58
2021/03/20 10:30:26;;;;;;;7.25;4.60;;;;;;;;;;4926689;28;20027;-59
2021/03/20 10:33:01;;;;;;;7.03;3.65;;;;;;;;;;4927266;28;20109;-58
2021/03/20 10:35:30;;;;;;;6.80;3.90;;;;;;;;;;4927447;28;20113;-59
2021/03/20 10:38:15;;;;;;;11.13;5.53;;;;;;;;;;4930617;28;20042;-58
2021/03/20 10:40:45;;;;;;;8.80;5.95;;;;;;;;;;4927175;28;20039;-58
2021/03/20 10:43:14;;;;;;;8.73;4.57;;;;;;;;;;4911433;28;20046;-59
2021/03/20 10:45:44;;;;;;;6.35;3.80;;;;;;;;;;4910115;28;22165;-59
2021/03/20 10:48:11;;;;;;;6.80;4.20;;;;;;;;;;4912981;28;22105;-58
2021/03/20 10:50:39;;;;;;;10.05;3.90;;;;;;;;;;4931136;28;20031;-58
2021/03/20 10:53:12;;;;;;;7.40;4.18;;;;;;;;;;4921370;28;20070;-59
2021/03/20 10:55:46;;;;;;;6.55;3.92;;;;;;;;;;4929995;28;20150;-58
2021/03/20 10:58:16;;;;;;;6.65;3.88;;;;;;;;;;4927316;28;20054;-57
2021/03/20 11:00:42;;;;;;;9.85;4.68;;;;;;;;;;4928254;28;20039;-57
2021/03/20 11:03:28;;;;;;;7.72;3.38;;;;;;;;;;4927332;28;20027;-58
2021/03/20 11:05:54;;;;;;;5.93;3.05;;;;;;;;;;4898659;28;20158;-58
2021/03/20 11:08:28;;;;;;;5.60;3.30;;;;;;;;;;4925240;28;20089;-58
2021/03/20 11:11:06;;;;;;;15.75;3.88;;;;;;;;;;4893092;28;20053;-58
2021/03/20 11:13:35;;;;;;;6.95;2.92;;;;;;;;;;4926337;28;20054;-59
2021/03/20 11:16:15;;;;;;;5.85;2.63;;;;;;;;;;4909981;28;20822;-58
2021/03/20 11:19:02;;;;;;;8.93;4.22;;;;;;;;;;4928721;28;20038;-59
2021/03/20 11:21:33;;;;;;;9.27;3.80;;;;;;;;;;4928523;28;20065;-59
2021/03/20 11:24:00;;;;;;;7.85;3.58;;;;;;;;;;4910290;28;20080;-59
2021/03/20 11:26:31;;;;;;;5.65;3.20;;;;;;;;;;4909260;28;20419;-59
2021/03/20 11:28:58;;;;;;;7.18;3.90;;;;;;;;;;4928270;28;20038;-58
2021/03/20 11:31:26;;;;;;;12.88;3.97;;;;;;;;;;4925404;28;20364;-58
2021/03/20 11:33:55;;;;;;;8.90;3.38;;;;;;;;;;4926506;28;20065;-58
2021/03/20 11:36:24;;;;;;;7.53;3.60;;;;;;;;;;4928321;28;20058;-58
2021/03/20 11:38:51;;;;;;;7.63;2.95;;;;;;;;;;4925970;28;20046;-58
2021/03/20 11:41:22;;;;;;;5.88;2.90;;;;;;;;;;4923052;28;20071;-59
2021/03/20 11:43:49;;;;;;;8.55;3.30;;;;;;;;;;4918611;28;20039;-58
2021/03/20 11:46:18;;;;;;;6.95;3.10;;;;;;;;;;4926818;28;20039;-58
2021/03/20 11:48:50;;;;;;;5.00;2.70;;;;;;;;;;4926080;28;20039;-57
2021/03/20 11:51:20;;;;;;;7.43;2.80;;;;;;;;;;4926896;28;20106;-63
2021/03/20 11:53:49;;;;;;;4.53;2.20;;;;;;;;;;4928073;28;20899;-57
2021/03/20 11:56:15;;;;;;;6.75;2.58;;;;;;;;;;4911281;28;20031;-60
2021/03/20 11:58:50;;;;;;;6.13;2.70;;;;;;;;;;4925302;28;20486;-60
2021/03/20 12:01:34;;;;;;;4.75;2.65;;;;;;;;;;4923482;28;20035;-59
2021/03/20 12:04:09;;;;;;;13.07;2.72;;;;;;;;;;4925818;28;20035;-58
2021/03/20 12:06:34;;;;;;;9.52;2.53;;;;;;;;;;4925924;28;20035;-59
2021/03/20 12:09:04;;;;;;;5.60;3.03;;;;;;;;;;4925777;28;20091;-59
2021/03/20 12:11:47;;;;;;;5.15;2.58;;;;;;;;;;4925328;28;20095;-59
2021/03/20 12:14:42;;;;;;;7.68;2.53;;;;;;;;;;4907547;28;20035;-58
2021/03/20 12:17:13;;;;;;;14.23;5.38;;;;;;;;;;4916513;28;20081;-61
2021/03/20 12:19:51;;;;;;;12.40;3.50;;;;;;;;;;4929090;28;20035;-58
2021/03/20 12:22:31;;;;;;;7.57;2.55;;;;;;;;;;4909877;28;20039;-58
2021/03/20 12:25:22;;;;;;;11.52;2.58;;;;;;;;;;4926357;28;20066;-59
2021/03/20 12:27:51;;;;;;;5.10;2.60;;;;;;;;;;4918809;28;20081;-58
2021/03/20 12:30:29;;;;;;;5.97;2.70;;;;;;;;;;4925366;28;20506;-59
2021/03/20 12:33:15;;;;;;;5.47;2.63;;;;;;;;;;4917884;28;20043;-59
2021/03/20 12:35:43;;;;;;;7.78;2.05;;;;;;;;;;4928564;28;20035;-58
2021/03/20 12:38:12;;;;;;;3.60;2.38;;;;;;;;;;4927441;28;20110;-59
2021/03/20 12:40:57;;;;;;;5.00;2.47;;;;;;;;;;4926058;28;20677;-59
2021/03/20 12:43:33;;;;;;;6.65;2.72;;;;;;;;;;4924221;28;20127;-59
2021/03/20 12:46:05;;;;;;;7.68;2.72;;;;;;;;;;4908842;28;20035;-57
2021/03/20 12:48:34;;;;;;;9.45;2.72;;;;;;;;;;4909888;28;20122;-58
2021/03/20 12:51:02;;;;;;;6.90;2.33;;;;;;;;;;4925668;28;22014;-59
2021/03/20 12:53:27;;;;;;;4.70;2.55;;;;;;;;;;4892017;28;20024;-57
2021/03/20 12:55:53;;;;;;;5.82;2.50;;;;;;;;;;4910476;28;20054;-60
2021/03/20 12:58:19;;;;;;;6.75;2.85;;;;;;;;;;4925821;28;20039;-58
2021/03/20 13:00:47;;;;;;;7.80;3.38;;;;;;;;;;4932132;28;20070;-58
2021/03/20 13:03:12;;;;;;;5.25;2.83;;;;;;;;;;4932311;28;20035;-58
2021/03/20 13:05:43;;;;;;;8.15;2.97;;;;;;;;;;4925956;28;20057;-58
2021/03/20 13:08:10;;;;;;;6.75;3.03;;;;;;;;;;4930795;28;20034;-59
2021/03/20 13:10:35;;;;;;;7.95;4.05;;;;;;;;;;4910525;28;20534;-59
2021/03/20 13:13:00;;;;;;;6.93;4.63;;;;;;;;;;4928405;28;20134;-59
2021/03/20 13:15:26;;;;;;;8.88;3.70;;;;;;;;;;4926388;28;20991;-59
2021/03/20 13:17:52;;;;;;;15.00;4.95;;;;;;;;;;4911754;28;20042;-59
2021/03/20 13:20:21;;;;;;;4.57;3.20;;;;;;;;;;4928491;28;20042;-59
2021/03/20 13:22:49;;;;;;;3.75;3.35;;;;;;;;;;4931464;28;20066;-58
2021/03/20 13:25:34;;;;;;;4.43;2.97;;;;;;;;;;4918508;28;20031;-60
2021/03/20 13:28:00;;;;;;;;;;;;;;;;;;4911528;28;20074;-58
2021/03/20 13:30:27;;;;;;;6.70;3.20;;;;;;;;;;4913499;28;20394;-58
2021/03/20 13:32:53;;;;;;;5.20;2.83;;;;;;;;;;4892573;28;20039;-58
2021/03/20 13:35:22;;;;;;;4.78;2.28;;;;;;;;;;4928850;28;20023;-58
2021/03/20 13:37:50;;;;;;;8.15;3.28;;;;;;;;;;4931943;28;20039;-58
2021/03/20 13:40:18;;;;;;;6.90;2.45;;;;;;;;;;4926518;28;20051;-59
2021/03/20 13:42:44;;;;;;;5.47;2.78;;;;;;;;;;4927415;28;20086;-59
2021/03/20 13:45:11;;;;;;;2.95;2.30;;;;;;;;;;4931465;28;20534;-60
2021/03/20 13:47:39;;;;;;;5.82;2.53;;;;;;;;;;4928984;28;20487;-59
2021/03/20 13:50:06;;;;;;;3.67;2.55;;;;;;;;;;4926794;28;20051;-58
2021/03/20 13:52:34;;;;;;;4.32;2.28;;;;;;;;;;4922982;28;20031;-59
2021/03/20 13:55:00;;;;;;;7.55;2.40;;;;;;;;;;4926348;28;20698;-59
2021/03/20 13:57:28;;;;;;;4.07;2.17;;;;;;;;;;4928422;28;20038;-60
2021/03/20 13:59:56;;;;;;;6.65;2.35;;;;;;;;;;4912708;28;20035;-59
2021/03/20 14:02:21;;;;;;;3.28;2.30;;;;;;;;;;4906628;28;20996;-58
2021/03/20 14:04:49;;;;;;;6.03;2.80;;;;;;;;;;4929906;28;20412;-59
2021/03/20 14:07:24;;;;;;;4.70;2.58;;;;;;;;;;4910292;28;20428;-58
2021/03/20 14:09:52;;;;;;;4.65;2.40;;;;;;;;;;4908922;28;20031;-59
2021/03/20 14:12:18;;;;;;;9.65;3.05;;;;;;;;;;4928908;28;20070;-58
2021/03/20 14:14:47;;;;;;;3.55;2.58;;;;;;;;;;4925441;28;20463;-59
2021/03/20 14:17:13;;;;;;;3.75;2.33;;;;;;;;;;4911984;28;20038;-59
2021/03/20 14:19:41;;;;;;;5.00;2.78;;;;;;;;;;4928072;28;20031;-58
2021/03/20 14:22:10;;;;;;;3.30;2.17;;;;;;;;;;4930506;28;20050;-58
2021/03/20 14:24:41;;;;;;;2.33;2.05;;;;;;;;;;4894218;28;20138;-58
2021/03/20 14:27:11;;;;;;;2.85;2.15;;;;;;;;;;4912634;28;20039;-57
2021/03/20 14:29:39;;;;;;;16.42;5.90;;;;;;;;;;4929963;28;20443;-58
2021/03/20 14:32:05;;;;;;;18.95;6.90;;;;;;;;;;4931348;28;20089;-57
2021/03/20 14:34:30;;;;;;;13.75;5.18;;;;;;;;;;4911445;28;20039;-57
2021/03/20 14:36:56;;;;;;;4.10;2.83;;;;;;;;;;4929773;28;20110;-60
2021/03/20 14:39:24;;;;;;;2.97;2.10;;;;;;;;;;4930309;28;20169;-58
2021/03/20 14:41:55;;;;;;;4.55;2.53;;;;;;;;;;4924764;28;20035;-57
2021/03/20 14:44:20;;;;;;;3.58;2.10;;;;;;;;;;4912819;28;20862;-58
2021/03/20 14:46:48;;;;;;;4.55;1.90;;;;;;;;;;4912382;28;20054;-58
2021/03/20 14:49:16;;;;;;;4.40;2.40;;;;;;;;;;4927049;28;20035;-58
2021/03/20 14:51:44;;;;;;;5.28;2.30;;;;;;;;;;4930443;28;20115;-58
2021/03/20 14:54:09;;;;;;;3.95;2.30;;;;;;;;;;4930470;28;20035;-58
2021/03/20 14:56:35;;;;;;;5.35;2.45;;;;;;;;;;4909527;28;20738;-58
2021/03/20 14:59:00;;;;;;;2.75;2.05;;;;;;;;;;4910797;28;20043;-58
2021/03/20 15:01:27;;;;;;;2.92;2.20;;;;;;;;;;4931465;28;20131;-58
2021/03/20 15:03:55;;;;;;;10.98;2.55;;;;;;;;;;4931410;28;20145;-58
2021/03/20 15:06:23;;;;;;;4.28;2.47;;;;;;;;;;4929699;28;20122;-57